sensor_id;sensor_type;location;lat;lon;timestamp;P1;durP1;ratioP1;P2;durP2;ratioP2
36105;SDS011;22159;55.736;38.048;2024-02-14T00:00:20;1.75;;;1.50;;
36105;SDS011;22159;55.736;38.048;2024-02-14T00:02:49;2.53;;;1.60;;
36105;SDS011;22159;55.736;38.048;2024-02-14T00:05:15;1.52;;;1.35;;
36105;SDS011;22159;55.736;38.048;2024-02-14T00:07:41;1.83;;;1.60;;
36105;SDS011;22159;55.736;38.048;2024-02-14T00:10:08;3.65;;;1.70;;
36105;SDS011;22159;55.736;38.048;2024-02-14T00:12:34;2.67;;;1.70;;
36105;SDS011;22159;55.736;38.048;2024-02-14T00:15:01;2.70;;;1.55;;
36105;SDS011;22159;55.736;38.048;2024-02-14T00:17:28;1.45;;;1.30;;
36105;SDS011;22159;55.736;38.048;2024-02-14T00:19:54;1.40;;;1.30;;
36105;SDS011;22159;55.736;38.048;2024-02-14T00:22:20;1.63;;;1.50;;
36105;SDS011;22159;55.736;38.048;2024-02-14T00:24:46;1.77;;;1.67;;
36105;SDS011;22159;55.736;38.048;2024-02-14T00:27:12;1.48;;;1.38;;
36105;SDS011;22159;55.736;38.048;2024-02-14T00:29:42;1.88;;;1.70;;
36105;SDS011;22159;55.736;38.048;2024-02-14T00:32:10;1.98;;;1.58;;
36105;SDS011;22159;55.736;38.048;2024-02-14T00:34:36;1.77;;;1.58;;
36105;SDS011;22159;55.736;38.048;2024-02-14T00:37:02;1.58;;;1.30;;
36105;SDS011;22159;55.736;38.048;2024-02-14T00:39:28;1.98;;;1.50;;
36105;SDS011;22159;55.736;38.048;2024-02-14T00:41:54;1.92;;;1.58;;
36105;SDS011;22159;55.736;38.048;2024-02-14T00:44:21;1.58;;;1.48;;
36105;SDS011;22159;55.736;38.048;2024-02-14T00:46:47;1.20;;;1.10;;
36105;SDS011;22159;55.736;38.048;2024-02-14T00:49:14;1.85;;;1.60;;
36105;SDS011;22159;55.736;38.048;2024-02-14T00:51:40;2.00;;;1.80;;
36105;SDS011;22159;55.736;38.048;2024-02-14T00:54:06;1.25;;;1.15;;
36105;SDS011;22159;55.736;38.048;2024-02-14T00:56:33;2.28;;;1.50;;
36105;SDS011;22159;55.736;38.048;2024-02-14T00:58:59;1.55;;;1.40;;
36105;SDS011;22159;55.736;38.048;2024-02-14T01:01:25;1.58;;;1.38;;
36105;SDS011;22159;55.736;38.048;2024-02-14T01:03:51;1.58;;;1.48;;
36105;SDS011;22159;55.736;38.048;2024-02-14T01:06:18;1.67;;;1.58;;
36105;SDS011;22159;55.736;38.048;2024-02-14T01:08:45;1.67;;;1.50;;
36105;SDS011;22159;55.736;38.048;2024-02-14T01:11:11;2.22;;;1.58;;
36105;SDS011;22159;55.736;38.048;2024-02-14T01:13:37;1.58;;;1.48;;
36105;SDS011;22159;55.736;38.048;2024-02-14T01:16:03;2.38;;;1.73;;
36105;SDS011;22159;55.736;38.048;2024-02-14T01:18:30;1.80;;;1.55;;
36105;SDS011;22159;55.736;38.048;2024-02-14T01:20:57;1.75;;;1.63;;
36105;SDS011;22159;55.736;38.048;2024-02-14T01:23:26;2.58;;;1.67;;
36105;SDS011;22159;55.736;38.048;2024-02-14T01:25:52;1.63;;;1.50;;
36105;SDS011;22159;55.736;38.048;2024-02-14T01:28:20;1.75;;;1.50;;
36105;SDS011;22159;55.736;38.048;2024-02-14T01:30:46;1.67;;;1.50;;
36105;SDS011;22159;55.736;38.048;2024-02-14T01:33:12;1.75;;;1.40;;
36105;SDS011;22159;55.736;38.048;2024-02-14T01:35:39;1.70;;;1.60;;
36105;SDS011;22159;55.736;38.048;2024-02-14T01:38:06;1.73;;;1.45;;
36105;SDS011;22159;55.736;38.048;2024-02-14T01:40:33;1.65;;;1.55;;
36105;SDS011;22159;55.736;38.048;2024-02-14T01:42:59;2.92;;;1.45;;
36105;SDS011;22159;55.736;38.048;2024-02-14T01:45:25;1.77;;;1.42;;
36105;SDS011;22159;55.736;38.048;2024-02-14T01:47:52;1.50;;;1.40;;
36105;SDS011;22159;55.736;38.048;2024-02-14T01:50:20;1.83;;;1.63;;
36105;SDS011;22159;55.736;38.048;2024-02-14T01:52:53;1.80;;;1.58;;
36105;SDS011;22159;55.736;38.048;2024-02-14T01:55:20;2.25;;;1.52;;
36105;SDS011;22159;55.736;38.048;2024-02-14T01:57:47;1.52;;;1.38;;
36105;SDS011;22159;55.736;38.048;2024-02-14T02:00:13;2.10;;;1.52;;
36105;SDS011;22159;55.736;38.048;2024-02-14T02:02:42;1.83;;;1.63;;
36105;SDS011;22159;55.736;38.048;2024-02-14T02:05:09;2.10;;;1.70;;
36105;SDS011;22159;55.736;38.048;2024-02-14T02:07:35;2.20;;;1.70;;
36105;SDS011;22159;55.736;38.048;2024-02-14T02:10:04;1.65;;;1.55;;
36105;SDS011;22159;55.736;38.048;2024-02-14T02:12:31;1.83;;;1.48;;
36105;SDS011;22159;55.736;38.048;2024-02-14T02:14:57;2.83;;;1.40;;
36105;SDS011;22159;55.736;38.048;2024-02-14T02:17:23;1.98;;;1.55;;
36105;SDS011;22159;55.736;38.048;2024-02-14T02:19:53;1.73;;;1.60;;
36105;SDS011;22159;55.736;38.048;2024-02-14T02:22:19;1.70;;;1.60;;
36105;SDS011;22159;55.736;38.048;2024-02-14T02:24:45;1.67;;;1.50;;
36105;SDS011;22159;55.736;38.048;2024-02-14T02:27:12;2.00;;;1.65;;
36105;SDS011;22159;55.736;38.048;2024-02-14T02:29:41;2.45;;;1.50;;
36105;SDS011;22159;55.736;38.048;2024-02-14T02:32:07;2.50;;;1.63;;
36105;SDS011;22159;55.736;38.048;2024-02-14T02:34:35;1.88;;;1.60;;
36105;SDS011;22159;55.736;38.048;2024-02-14T02:37:04;1.58;;;1.48;;
36105;SDS011;22159;55.736;38.048;2024-02-14T02:39:34;2.22;;;1.73;;
36105;SDS011;22159;55.736;38.048;2024-02-14T02:42:03;1.80;;;1.40;;
36105;SDS011;22159;55.736;38.048;2024-02-14T02:44:30;1.77;;;1.58;;
36105;SDS011;22159;55.736;38.048;2024-02-14T02:46:57;2.28;;;1.77;;
36105;SDS011;22159;55.736;38.048;2024-02-14T02:49:23;2.50;;;1.65;;
36105;SDS011;22159;55.736;38.048;2024-02-14T02:51:49;2.42;;;1.70;;
36105;SDS011;22159;55.736;38.048;2024-02-14T02:54:15;1.95;;;1.20;;
36105;SDS011;22159;55.736;38.048;2024-02-14T02:56:41;1.83;;;1.52;;
36105;SDS011;22159;55.736;38.048;2024-02-14T02:59:07;1.60;;;1.50;;
36105;SDS011;22159;55.736;38.048;2024-02-14T03:01:36;1.98;;;1.60;;
36105;SDS011;22159;55.736;38.048;2024-02-14T03:04:02;1.65;;;1.35;;
36105;SDS011;22159;55.736;38.048;2024-02-14T03:06:29;1.77;;;1.48;;
36105;SDS011;22159;55.736;38.048;2024-02-14T03:08:56;2.15;;;1.60;;
36105;SDS011;22159;55.736;38.048;2024-02-14T03:11:22;1.48;;;1.35;;
36105;SDS011;22159;55.736;38.048;2024-02-14T03:13:50;2.30;;;1.50;;
36105;SDS011;22159;55.736;38.048;2024-02-14T03:16:16;1.63;;;1.40;;
36105;SDS011;22159;55.736;38.048;2024-02-14T03:18:42;1.52;;;1.40;;
36105;SDS011;22159;55.736;38.048;2024-02-14T03:21:08;2.20;;;1.63;;
36105;SDS011;22159;55.736;38.048;2024-02-14T03:23:36;3.70;;;1.70;;
36105;SDS011;22159;55.736;38.048;2024-02-14T03:26:04;2.10;;;1.70;;
36105;SDS011;22159;55.736;38.048;2024-02-14T03:28:32;1.95;;;1.73;;
36105;SDS011;22159;55.736;38.048;2024-02-14T03:30:58;2.95;;;1.67;;
36105;SDS011;22159;55.736;38.048;2024-02-14T03:33:24;3.78;;;2.00;;
36105;SDS011;22159;55.736;38.048;2024-02-14T03:35:50;2.42;;;2.20;;
36105;SDS011;22159;55.736;38.048;2024-02-14T03:38:26;3.15;;;2.13;;
36105;SDS011;22159;55.736;38.048;2024-02-14T03:40:52;2.53;;;1.63;;
36105;SDS011;22159;55.736;38.048;2024-02-14T03:43:18;1.95;;;1.75;;
36105;SDS011;22159;55.736;38.048;2024-02-14T03:45:44;3.30;;;2.08;;
36105;SDS011;22159;55.736;38.048;2024-02-14T03:48:11;3.95;;;1.90;;
36105;SDS011;22159;55.736;38.048;2024-02-14T03:50:38;2.47;;;2.25;;
36105;SDS011;22159;55.736;38.048;2024-02-14T03:53:04;4.03;;;2.25;;
36105;SDS011;22159;55.736;38.048;2024-02-14T03:55:30;3.55;;;1.73;;
36105;SDS011;22159;55.736;38.048;2024-02-14T03:57:56;2.80;;;2.10;;
36105;SDS011;22159;55.736;38.048;2024-02-14T04:00:22;4.05;;;1.95;;
36105;SDS011;22159;55.736;38.048;2024-02-14T04:02:48;3.83;;;1.85;;
36105;SDS011;22159;55.736;38.048;2024-02-14T04:05:17;5.20;;;2.20;;
36105;SDS011;22159;55.736;38.048;2024-02-14T04:07:44;14.57;;;5.88;;
36105;SDS011;22159;55.736;38.048;2024-02-14T04:10:14;30.20;;;12.38;;
36105;SDS011;22159;55.736;38.048;2024-02-14T04:12:40;43.55;;;14.93;;
36105;SDS011;22159;55.736;38.048;2024-02-14T04:15:06;31.90;;;12.82;;
36105;SDS011;22159;55.736;38.048;2024-02-14T04:17:32;29.70;;;11.38;;
36105;SDS011;22159;55.736;38.048;2024-02-14T04:19:58;35.05;;;11.25;;
36105;SDS011;22159;55.736;38.048;2024-02-14T04:22:24;25.33;;;9.75;;
36105;SDS011;22159;55.736;38.048;2024-02-14T04:24:50;24.50;;;9.73;;
36105;SDS011;22159;55.736;38.048;2024-02-14T04:27:17;17.45;;;7.60;;
36105;SDS011;22159;55.736;38.048;2024-02-14T04:29:46;17.52;;;6.88;;
36105;SDS011;22159;55.736;38.048;2024-02-14T04:32:12;15.57;;;6.32;;
36105;SDS011;22159;55.736;38.048;2024-02-14T04:34:39;16.25;;;6.85;;
36105;SDS011;22159;55.736;38.048;2024-02-14T04:37:06;13.32;;;5.95;;
36105;SDS011;22159;55.736;38.048;2024-02-14T04:39:35;12.40;;;5.57;;
36105;SDS011;22159;55.736;38.048;2024-02-14T04:42:01;12.55;;;5.10;;
36105;SDS011;22159;55.736;38.048;2024-02-14T04:44:31;11.43;;;5.00;;
36105;SDS011;22159;55.736;38.048;2024-02-14T04:46:57;12.27;;;4.93;;
36105;SDS011;22159;55.736;38.048;2024-02-14T04:49:24;9.57;;;4.22;;
36105;SDS011;22159;55.736;38.048;2024-02-14T04:51:51;8.35;;;4.13;;
36105;SDS011;22159;55.736;38.048;2024-02-14T04:54:17;10.35;;;3.80;;
36105;SDS011;22159;55.736;38.048;2024-02-14T04:56:44;6.72;;;4.10;;
36105;SDS011;22159;55.736;38.048;2024-02-14T04:59:13;9.75;;;4.05;;
36105;SDS011;22159;55.736;38.048;2024-02-14T05:01:39;7.18;;;4.15;;
36105;SDS011;22159;55.736;38.048;2024-02-14T05:04:05;8.65;;;4.22;;
36105;SDS011;22159;55.736;38.048;2024-02-14T05:06:34;6.82;;;3.67;;
36105;SDS011;22159;55.736;38.048;2024-02-14T05:09:01;7.68;;;3.90;;
36105;SDS011;22159;55.736;38.048;2024-02-14T05:11:27;7.25;;;3.78;;
36105;SDS011;22159;55.736;38.048;2024-02-14T05:13:53;8.98;;;3.60;;
36105;SDS011;22159;55.736;38.048;2024-02-14T05:16:19;7.22;;;3.30;;
36105;SDS011;22159;55.736;38.048;2024-02-14T05:18:46;8.23;;;3.55;;
36105;SDS011;22159;55.736;38.048;2024-02-14T05:21:13;6.25;;;3.38;;
36105;SDS011;22159;55.736;38.048;2024-02-14T05:23:39;9.27;;;3.40;;
36105;SDS011;22159;55.736;38.048;2024-02-14T05:26:05;5.57;;;3.00;;
36105;SDS011;22159;55.736;38.048;2024-02-14T05:28:32;6.13;;;3.35;;
36105;SDS011;22159;55.736;38.048;2024-02-14T05:30:59;5.00;;;2.75;;
36105;SDS011;22159;55.736;38.048;2024-02-14T05:33:25;7.25;;;3.42;;
36105;SDS011;22159;55.736;38.048;2024-02-14T05:35:51;5.47;;;3.00;;
36105;SDS011;22159;55.736;38.048;2024-02-14T05:38:18;6.45;;;3.10;;
36105;SDS011;22159;55.736;38.048;2024-02-14T05:40:48;6.95;;;3.08;;
36105;SDS011;22159;55.736;38.048;2024-02-14T05:43:15;3.55;;;2.60;;
36105;SDS011;22159;55.736;38.048;2024-02-14T05:45:42;4.85;;;3.00;;
36105;SDS011;22159;55.736;38.048;2024-02-14T05:48:08;5.25;;;2.80;;
36105;SDS011;22159;55.736;38.048;2024-02-14T05:50:34;5.30;;;2.72;;
36105;SDS011;22159;55.736;38.048;2024-02-14T05:53:01;5.13;;;2.83;;
36105;SDS011;22159;55.736;38.048;2024-02-14T05:55:27;5.63;;;2.65;;
36105;SDS011;22159;55.736;38.048;2024-02-14T05:57:53;5.60;;;2.45;;
36105;SDS011;22159;55.736;38.048;2024-02-14T06:00:19;5.72;;;2.80;;
36105;SDS011;22159;55.736;38.048;2024-02-14T06:02:46;5.65;;;2.95;;
36105;SDS011;22159;55.736;38.048;2024-02-14T06:05:12;3.80;;;2.50;;
36105;SDS011;22159;55.736;38.048;2024-02-14T06:07:39;6.45;;;2.65;;
36105;SDS011;22159;55.736;38.048;2024-02-14T06:10:05;6.40;;;2.80;;
36105;SDS011;22159;55.736;38.048;2024-02-14T06:12:32;4.85;;;2.60;;
36105;SDS011;22159;55.736;38.048;2024-02-14T06:14:58;5.38;;;2.67;;
36105;SDS011;22159;55.736;38.048;2024-02-14T06:17:24;6.10;;;2.65;;
36105;SDS011;22159;55.736;38.048;2024-02-14T06:19:53;5.20;;;2.47;;
36105;SDS011;22159;55.736;38.048;2024-02-14T06:22:19;3.60;;;2.58;;
36105;SDS011;22159;55.736;38.048;2024-02-14T06:24:46;5.75;;;2.40;;
36105;SDS011;22159;55.736;38.048;2024-02-14T06:27:15;4.18;;;2.60;;
36105;SDS011;22159;55.736;38.048;2024-02-14T06:29:42;4.00;;;2.53;;
36105;SDS011;22159;55.736;38.048;2024-02-14T06:32:08;4.10;;;2.40;;
36105;SDS011;22159;55.736;38.048;2024-02-14T06:34:34;3.53;;;2.70;;
36105;SDS011;22159;55.736;38.048;2024-02-14T06:37:00;4.80;;;2.80;;
36105;SDS011;22159;55.736;38.048;2024-02-14T06:39:26;4.45;;;2.55;;
36105;SDS011;22159;55.736;38.048;2024-02-14T06:41:52;4.60;;;2.70;;
36105;SDS011;22159;55.736;38.048;2024-02-14T06:44:18;4.32;;;2.90;;
36105;SDS011;22159;55.736;38.048;2024-02-14T06:46:44;4.18;;;2.67;;
36105;SDS011;22159;55.736;38.048;2024-02-14T06:49:10;5.50;;;2.95;;
36105;SDS011;22159;55.736;38.048;2024-02-14T06:51:36;4.55;;;2.47;;
36105;SDS011;22159;55.736;38.048;2024-02-14T06:54:02;4.15;;;2.55;;
36105;SDS011;22159;55.736;38.048;2024-02-14T06:56:29;6.40;;;2.72;;
36105;SDS011;22159;55.736;38.048;2024-02-14T06:58:56;5.32;;;3.00;;
36105;SDS011;22159;55.736;38.048;2024-02-14T07:01:25;5.10;;;2.63;;
36105;SDS011;22159;55.736;38.048;2024-02-14T07:03:52;4.45;;;2.95;;
36105;SDS011;22159;55.736;38.048;2024-02-14T07:06:18;6.95;;;2.83;;
36105;SDS011;22159;55.736;38.048;2024-02-14T07:08:44;3.95;;;2.45;;
36105;SDS011;22159;55.736;38.048;2024-02-14T07:11:10;5.35;;;2.70;;
36105;SDS011;22159;55.736;38.048;2024-02-14T07:13:36;4.05;;;2.92;;
36105;SDS011;22159;55.736;38.048;2024-02-14T07:16:02;4.07;;;2.60;;
36105;SDS011;22159;55.736;38.048;2024-02-14T07:18:29;4.78;;;2.65;;
36105;SDS011;22159;55.736;38.048;2024-02-14T07:20:55;4.90;;;2.72;;
36105;SDS011;22159;55.736;38.048;2024-02-14T07:23:21;3.47;;;2.58;;
36105;SDS011;22159;55.736;38.048;2024-02-14T07:25:47;5.10;;;2.50;;
36105;SDS011;22159;55.736;38.048;2024-02-14T07:28:13;4.57;;;2.92;;
36105;SDS011;22159;55.736;38.048;2024-02-14T07:30:39;4.70;;;2.42;;
36105;SDS011;22159;55.736;38.048;2024-02-14T07:33:05;6.65;;;2.75;;
36105;SDS011;22159;55.736;38.048;2024-02-14T07:35:32;5.20;;;2.85;;
36105;SDS011;22159;55.736;38.048;2024-02-14T07:37:58;4.40;;;2.70;;
36105;SDS011;22159;55.736;38.048;2024-02-14T07:40:24;4.90;;;2.90;;
36105;SDS011;22159;55.736;38.048;2024-02-14T07:42:52;4.35;;;2.60;;
36105;SDS011;22159;55.736;38.048;2024-02-14T07:45:18;4.65;;;2.60;;
36105;SDS011;22159;55.736;38.048;2024-02-14T07:47:44;3.78;;;2.70;;
36105;SDS011;22159;55.736;38.048;2024-02-14T07:50:10;3.97;;;2.60;;
36105;SDS011;22159;55.736;38.048;2024-02-14T07:52:37;6.07;;;2.90;;
36105;SDS011;22159;55.736;38.048;2024-02-14T07:55:07;5.13;;;2.93;;
36105;SDS011;22159;55.736;38.048;2024-02-14T07:57:35;4.90;;;2.88;;
36105;SDS011;22159;55.736;38.048;2024-02-14T08:00:01;4.10;;;2.83;;
36105;SDS011;22159;55.736;38.048;2024-02-14T08:02:27;4.38;;;3.00;;
36105;SDS011;22159;55.736;38.048;2024-02-14T08:04:54;4.45;;;2.70;;
36105;SDS011;22159;55.736;38.048;2024-02-14T08:07:20;3.83;;;2.50;;
36105;SDS011;22159;55.736;38.048;2024-02-14T08:09:46;5.85;;;2.83;;
36105;SDS011;22159;55.736;38.048;2024-02-14T08:12:12;3.65;;;2.53;;
36105;SDS011;22159;55.736;38.048;2024-02-14T08:14:38;3.80;;;2.78;;
36105;SDS011;22159;55.736;38.048;2024-02-14T08:17:04;5.07;;;2.88;;
36105;SDS011;22159;55.736;38.048;2024-02-14T08:19:30;4.65;;;2.80;;
36105;SDS011;22159;55.736;38.048;2024-02-14T08:21:56;3.88;;;2.58;;
36105;SDS011;22159;55.736;38.048;2024-02-14T08:24:23;3.72;;;2.80;;
36105;SDS011;22159;55.736;38.048;2024-02-14T08:26:49;3.95;;;2.30;;
36105;SDS011;22159;55.736;38.048;2024-02-14T08:29:15;3.53;;;2.83;;
36105;SDS011;22159;55.736;38.048;2024-02-14T08:31:41;4.47;;;2.97;;
36105;SDS011;22159;55.736;38.048;2024-02-14T08:34:07;3.50;;;2.97;;
36105;SDS011;22159;55.736;38.048;2024-02-14T08:36:34;3.85;;;2.95;;
36105;SDS011;22159;55.736;38.048;2024-02-14T08:39:06;5.03;;;3.08;;
36105;SDS011;22159;55.736;38.048;2024-02-14T08:41:32;4.85;;;2.97;;
36105;SDS011;22159;55.736;38.048;2024-02-14T08:43:58;4.38;;;3.33;;
36105;SDS011;22159;55.736;38.048;2024-02-14T08:46:24;4.70;;;3.28;;
36105;SDS011;22159;55.736;38.048;2024-02-14T08:48:50;3.88;;;3.00;;
36105;SDS011;22159;55.736;38.048;2024-02-14T08:51:16;4.25;;;2.83;;
36105;SDS011;22159;55.736;38.048;2024-02-14T08:53:46;3.90;;;3.28;;
36105;SDS011;22159;55.736;38.048;2024-02-14T08:56:12;5.03;;;2.88;;
36105;SDS011;22159;55.736;38.048;2024-02-14T08:58:38;4.38;;;3.28;;
36105;SDS011;22159;55.736;38.048;2024-02-14T09:01:04;6.18;;;3.15;;
36105;SDS011;22159;55.736;38.048;2024-02-14T09:03:30;4.00;;;3.10;;
36105;SDS011;22159;55.736;38.048;2024-02-14T09:05:57;5.28;;;3.28;;
36105;SDS011;22159;55.736;38.048;2024-02-14T09:08:23;5.88;;;3.75;;
36105;SDS011;22159;55.736;38.048;2024-02-14T09:10:49;5.90;;;3.40;;
36105;SDS011;22159;55.736;38.048;2024-02-14T09:13:15;5.57;;;3.00;;
36105;SDS011;22159;55.736;38.048;2024-02-14T09:15:42;5.45;;;3.58;;
36105;SDS011;22159;55.736;38.048;2024-02-14T09:18:08;7.45;;;3.83;;
36105;SDS011;22159;55.736;38.048;2024-02-14T09:20:34;5.53;;;3.67;;
36105;SDS011;22159;55.736;38.048;2024-02-14T09:23:00;5.30;;;3.20;;
36105;SDS011;22159;55.736;38.048;2024-02-14T09:25:26;4.45;;;3.50;;
36105;SDS011;22159;55.736;38.048;2024-02-14T09:27:52;5.35;;;3.28;;
36105;SDS011;22159;55.736;38.048;2024-02-14T09:30:19;5.25;;;3.45;;
36105;SDS011;22159;55.736;38.048;2024-02-14T09:32:45;5.32;;;3.60;;
36105;SDS011;22159;55.736;38.048;2024-02-14T09:35:12;5.22;;;3.50;;
36105;SDS011;22159;55.736;38.048;2024-02-14T09:37:38;4.85;;;3.53;;
36105;SDS011;22159;55.736;38.048;2024-02-14T09:40:05;4.90;;;3.60;;
36105;SDS011;22159;55.736;38.048;2024-02-14T09:42:37;4.28;;;3.60;;
36105;SDS011;22159;55.736;38.048;2024-02-14T09:45:06;5.57;;;3.00;;
36105;SDS011;22159;55.736;38.048;2024-02-14T09:47:33;5.30;;;3.53;;
36105;SDS011;22159;55.736;38.048;2024-02-14T09:50:01;4.20;;;3.13;;
36105;SDS011;22159;55.736;38.048;2024-02-14T09:52:28;4.97;;;3.40;;
36105;SDS011;22159;55.736;38.048;2024-02-14T09:54:54;5.07;;;3.60;;
36105;SDS011;22159;55.736;38.048;2024-02-14T09:57:20;5.28;;;3.50;;
36105;SDS011;22159;55.736;38.048;2024-02-14T09:59:48;5.78;;;3.40;;
36105;SDS011;22159;55.736;38.048;2024-02-14T10:02:14;4.07;;;2.97;;
36105;SDS011;22159;55.736;38.048;2024-02-14T10:04:41;5.57;;;2.85;;
36105;SDS011;22159;55.736;38.048;2024-02-14T10:07:07;4.72;;;3.72;;
36105;SDS011;22159;55.736;38.048;2024-02-14T10:09:40;5.20;;;3.42;;
36105;SDS011;22159;55.736;38.048;2024-02-14T10:12:07;4.20;;;3.53;;
36105;SDS011;22159;55.736;38.048;2024-02-14T10:14:34;4.88;;;3.20;;
36105;SDS011;22159;55.736;38.048;2024-02-14T10:17:01;5.20;;;3.47;;
36105;SDS011;22159;55.736;38.048;2024-02-14T10:19:27;5.10;;;3.17;;
36105;SDS011;22159;55.736;38.048;2024-02-14T10:21:59;5.72;;;3.03;;
36105;SDS011;22159;55.736;38.048;2024-02-14T10:24:28;4.97;;;3.00;;
36105;SDS011;22159;55.736;38.048;2024-02-14T10:26:54;5.35;;;3.08;;
36105;SDS011;22159;55.736;38.048;2024-02-14T10:29:22;6.65;;;3.25;;
36105;SDS011;22159;55.736;38.048;2024-02-14T10:31:48;5.10;;;3.15;;
36105;SDS011;22159;55.736;38.048;2024-02-14T10:34:15;4.40;;;2.80;;
36105;SDS011;22159;55.736;38.048;2024-02-14T10:36:42;4.82;;;2.95;;
36105;SDS011;22159;55.736;38.048;2024-02-14T10:39:10;3.80;;;2.90;;
36105;SDS011;22159;55.736;38.048;2024-02-14T10:41:36;5.20;;;3.15;;
36105;SDS011;22159;55.736;38.048;2024-02-14T10:44:03;7.00;;;3.20;;
36105;SDS011;22159;55.736;38.048;2024-02-14T10:46:33;5.20;;;2.73;;
36105;SDS011;22159;55.736;38.048;2024-02-14T10:49:04;4.80;;;3.00;;
36105;SDS011;22159;55.736;38.048;2024-02-14T10:51:32;5.70;;;2.90;;
36105;SDS011;22159;55.736;38.048;2024-02-14T10:54:00;7.85;;;3.38;;
36105;SDS011;22159;55.736;38.048;2024-02-14T10:56:29;6.07;;;3.15;;
36105;SDS011;22159;55.736;38.048;2024-02-14T10:58:56;5.57;;;3.17;;
36105;SDS011;22159;55.736;38.048;2024-02-14T11:01:24;7.90;;;3.00;;
36105;SDS011;22159;55.736;38.048;2024-02-14T11:03:51;5.43;;;2.90;;
36105;SDS011;22159;55.736;38.048;2024-02-14T11:06:18;7.25;;;2.72;;
36105;SDS011;22159;55.736;38.048;2024-02-14T11:08:57;7.88;;;2.70;;
36105;SDS011;22159;55.736;38.048;2024-02-14T11:11:24;5.30;;;3.40;;
36105;SDS011;22159;55.736;38.048;2024-02-14T11:13:53;6.32;;;2.92;;
36105;SDS011;22159;55.736;38.048;2024-02-14T11:16:24;6.18;;;3.00;;
36105;SDS011;22159;55.736;38.048;2024-02-14T11:18:52;6.47;;;2.90;;
36105;SDS011;22159;55.736;38.048;2024-02-14T11:21:19;9.07;;;3.13;;
36105;SDS011;22159;55.736;38.048;2024-02-14T11:23:52;6.55;;;3.10;;
36105;SDS011;22159;55.736;38.048;2024-02-14T11:26:23;9.10;;;2.97;;
36105;SDS011;22159;55.736;38.048;2024-02-14T11:28:49;6.75;;;3.03;;
36105;SDS011;22159;55.736;38.048;2024-02-14T11:31:30;5.43;;;2.92;;
36105;SDS011;22159;55.736;38.048;2024-02-14T11:34:02;5.65;;;2.97;;
36105;SDS011;22159;55.736;38.048;2024-02-14T11:36:29;6.43;;;2.88;;
36105;SDS011;22159;55.736;38.048;2024-02-14T11:38:55;6.32;;;2.88;;
36105;SDS011;22159;55.736;38.048;2024-02-14T11:41:22;8.30;;;2.70;;
36105;SDS011;22159;55.736;38.048;2024-02-14T11:43:51;10.60;;;2.70;;
36105;SDS011;22159;55.736;38.048;2024-02-14T11:46:17;6.07;;;2.83;;
36105;SDS011;22159;55.736;38.048;2024-02-14T11:48:43;6.47;;;2.65;;
36105;SDS011;22159;55.736;38.048;2024-02-14T11:51:11;6.53;;;2.70;;
36105;SDS011;22159;55.736;38.048;2024-02-14T11:53:38;4.18;;;2.40;;
36105;SDS011;22159;55.736;38.048;2024-02-14T11:56:06;6.65;;;2.88;;
36105;SDS011;22159;55.736;38.048;2024-02-14T11:58:32;3.60;;;2.70;;
36105;SDS011;22159;55.736;38.048;2024-02-14T12:00:59;9.77;;;2.35;;
36105;SDS011;22159;55.736;38.048;2024-02-14T12:03:31;5.07;;;2.55;;
36105;SDS011;22159;55.736;38.048;2024-02-14T12:05:58;7.15;;;2.63;;
36105;SDS011;22159;55.736;38.048;2024-02-14T12:08:24;8.02;;;2.80;;
36105;SDS011;22159;55.736;38.048;2024-02-14T12:10:50;6.38;;;2.70;;
36105;SDS011;22159;55.736;38.048;2024-02-14T12:13:20;6.40;;;2.50;;
36105;SDS011;22159;55.736;38.048;2024-02-14T12:15:47;3.38;;;2.35;;
36105;SDS011;22159;55.736;38.048;2024-02-14T12:18:14;5.00;;;2.55;;
36105;SDS011;22159;55.736;38.048;2024-02-14T12:20:41;6.20;;;2.55;;
36105;SDS011;22159;55.736;38.048;2024-02-14T12:23:07;7.85;;;2.50;;
36105;SDS011;22159;55.736;38.048;2024-02-14T12:25:35;5.70;;;2.22;;
36105;SDS011;22159;55.736;38.048;2024-02-14T12:28:01;6.38;;;2.80;;
36105;SDS011;22159;55.736;38.048;2024-02-14T12:33:10;5.68;;;2.60;;
36105;SDS011;22159;55.736;38.048;2024-02-14T12:35:37;3.75;;;2.40;;
36105;SDS011;22159;55.736;38.048;2024-02-14T12:38:07;3.97;;;2.60;;
36105;SDS011;22159;55.736;38.048;2024-02-14T12:40:35;7.07;;;2.75;;
36105;SDS011;22159;55.736;38.048;2024-02-14T12:43:01;8.80;;;2.45;;
36105;SDS011;22159;55.736;38.048;2024-02-14T12:45:27;5.63;;;2.17;;
36105;SDS011;22159;55.736;38.048;2024-02-14T12:47:53;6.47;;;2.72;;
36105;SDS011;22159;55.736;38.048;2024-02-14T12:50:19;5.53;;;2.67;;
36105;SDS011;22159;55.736;38.048;2024-02-14T12:52:46;8.60;;;2.30;;
36105;SDS011;22159;55.736;38.048;2024-02-14T12:55:13;5.53;;;2.60;;
36105;SDS011;22159;55.736;38.048;2024-02-14T12:57:39;5.72;;;2.60;;
36105;SDS011;22159;55.736;38.048;2024-02-14T13:00:06;4.28;;;2.53;;
36105;SDS011;22159;55.736;38.048;2024-02-14T13:02:37;5.25;;;2.25;;
36105;SDS011;22159;55.736;38.048;2024-02-14T13:05:03;5.35;;;2.40;;
36105;SDS011;22159;55.736;38.048;2024-02-14T13:07:30;4.78;;;2.75;;
36105;SDS011;22159;55.736;38.048;2024-02-14T13:09:56;5.60;;;2.60;;
36105;SDS011;22159;55.736;38.048;2024-02-14T13:12:22;5.47;;;2.30;;
36105;SDS011;22159;55.736;38.048;2024-02-14T13:14:48;6.60;;;2.30;;
36105;SDS011;22159;55.736;38.048;2024-02-14T13:17:14;3.88;;;2.10;;
36105;SDS011;22159;55.736;38.048;2024-02-14T13:19:40;4.60;;;2.35;;
36105;SDS011;22159;55.736;38.048;2024-02-14T13:22:08;3.92;;;2.30;;
36105;SDS011;22159;55.736;38.048;2024-02-14T13:24:34;5.30;;;2.67;;
36105;SDS011;22159;55.736;38.048;2024-02-14T13:27:00;4.45;;;2.60;;
36105;SDS011;22159;55.736;38.048;2024-02-14T13:29:26;3.83;;;2.20;;
36105;SDS011;22159;55.736;38.048;2024-02-14T13:31:52;6.55;;;2.42;;
36105;SDS011;22159;55.736;38.048;2024-02-14T13:34:18;4.38;;;2.33;;
36105;SDS011;22159;55.736;38.048;2024-02-14T13:36:45;4.88;;;2.20;;
36105;SDS011;22159;55.736;38.048;2024-02-14T13:39:12;4.03;;;2.47;;
36105;SDS011;22159;55.736;38.048;2024-02-14T13:41:38;4.32;;;2.40;;
36105;SDS011;22159;55.736;38.048;2024-02-14T13:44:06;5.63;;;2.15;;
36105;SDS011;22159;55.736;38.048;2024-02-14T13:46:33;4.85;;;2.10;;
36105;SDS011;22159;55.736;38.048;2024-02-14T13:48:59;10.82;;;2.33;;
36105;SDS011;22159;55.736;38.048;2024-02-14T13:51:25;3.80;;;2.22;;
36105;SDS011;22159;55.736;38.048;2024-02-14T13:53:55;4.53;;;2.13;;
36105;SDS011;22159;55.736;38.048;2024-02-14T13:56:21;6.05;;;1.98;;
36105;SDS011;22159;55.736;38.048;2024-02-14T13:58:50;4.28;;;2.30;;
36105;SDS011;22159;55.736;38.048;2024-02-14T14:01:16;5.20;;;2.40;;
36105;SDS011;22159;55.736;38.048;2024-02-14T14:03:45;3.22;;;2.15;;
36105;SDS011;22159;55.736;38.048;2024-02-14T14:06:12;5.65;;;2.63;;
36105;SDS011;22159;55.736;38.048;2024-02-14T14:08:39;5.30;;;2.13;;
36105;SDS011;22159;55.736;38.048;2024-02-14T14:11:05;2.70;;;1.88;;
36105;SDS011;22159;55.736;38.048;2024-02-14T14:13:33;4.63;;;2.17;;
36105;SDS011;22159;55.736;38.048;2024-02-14T14:16:01;5.13;;;2.25;;
36105;SDS011;22159;55.736;38.048;2024-02-14T14:20:55;3.83;;;2.35;;
36105;SDS011;22159;55.736;38.048;2024-02-14T14:23:21;4.75;;;2.30;;
36105;SDS011;22159;55.736;38.048;2024-02-14T14:25:47;3.90;;;2.20;;
36105;SDS011;22159;55.736;38.048;2024-02-14T14:28:13;3.95;;;2.13;;
36105;SDS011;22159;55.736;38.048;2024-02-14T14:30:40;4.07;;;2.10;;
36105;SDS011;22159;55.736;38.048;2024-02-14T14:33:06;3.45;;;2.30;;
36105;SDS011;22159;55.736;38.048;2024-02-14T14:35:36;4.32;;;2.20;;